Detall de PIREP

Printer-friendly versionPDF version

[2014/11/22 08:15:00]
Flight IATA:CT3409
Pilot Number:026
Company ICAO:CAT
Aircraft Type:DC85/A
PAX:132
Aircraft Registration:PAX
Departing Airport: LSGG
Destination Airport: LEBL
Alternate Airport:LEGE
Online: VATSIM
Route:BALSI UN852 DIVKO UN975 BISBA
Flight Level:F290
No Slew and time accel
No pause
Crash detect
Detect pilot in Cockpit between each 30 and 45 minutes
08:15 Zero fuel Weight: 185718 Lbs, Fuel Weight: 32998 Lbs
08:15 VATSIM:LSGG 220750Z 15003KT 120V210 0600 R05/0700N R23/0900N FG VV002 06/06 Q1022 NOSIG
08:15 VATSIM:LEBL 220800Z 33009KT 270V360 9000 FEW008 SCT011 15/12 Q1017 NOSIG
08:18 Parking Brakes off
08:26 Take-off
08:26 Take off Weight: 217702 Lbs
08:26 Wind: 200º @ 003 Knots Heading: 223º
08:26 POS N46º 13´ 46´´ E006º 05´ 47´´
08:26 Gear Up: 174 Knots
08:26 Flaps:3 at 174 Knots
08:26 Flaps:2 at 213 Knots
08:27 Flaps:1 at 251 Knots
08:30 Flaps:0 at 205 Knots
08:41 Wind:107º@016 Knots Heading: 191º Ground Speed: 427 Knots Altitude 27933 ft
08:43 TOC
08:43 Fuel Weight: 27034 Lb
08:56 Wind:075º@029 Knots Heading: 204º Ground Speed: 446 Knots Altitude 29307 ft
09:02 TOD
09:02 Fuel Weight: 23117 Lb
09:11 Wind:084º@007 Knots Heading: 225º Ground Speed: 332 Knots Altitude 17588 ft
09:23 Flaps:1 at 209 Knots
09:26 Wind:333º@003 Knots Heading: 220º Ground Speed: 194 Knots Altitude 2368 ft
09:27 Gear Down: 173 Knots
09:27 Flaps:2 at 177 Knots
09:28 Flaps:3 at 176 Knots
09:29 Flaps:4 at 156 Knots
09:30 TouchDown:Rate -195 ft/min Speed: 135 Knots
09:30 VATSIM:LEBL 220900Z 33008KT 9000 BKN009 16/12 Q1018 NOSIG
09:30 Land
09:30 Wind:332º@008 Knots
09:30 Heading: 244º
09:30 Flight Duration: 01:04
09:30 Landing Weight: 206817 Lbs
09:30 POS N41º 17´ 59´´ E002º 05´ 10´´
09:35 Parking brakes on
09:35 Block to Block Duration: 01:17
09:35 Final Fuel: 20756 Lbls
09:35 Spent Fuel: 12242 Lbls
09:35 Flight Length: 270 NM
09:35 TOD Land Length: 134 NM

Exportar CSV

Powered by Drupal - Modified by Danger4k